sensor_id;sensor_type;location;lat;lon;timestamp;P1;durP1;ratioP1;P2;durP2;ratioP2
5058;SDS011;2548;52.050;11.036;2024-02-14T00:00:21;3.42;;;3.13;;
5058;SDS011;2548;52.050;11.036;2024-02-14T00:02:50;3.15;;;2.95;;
5058;SDS011;2548;52.050;11.036;2024-02-14T00:05:18;5.53;;;2.85;;
5058;SDS011;2548;52.050;11.036;2024-02-14T00:07:45;3.63;;;2.70;;
5058;SDS011;2548;52.050;11.036;2024-02-14T00:10:12;2.88;;;2.65;;
5058;SDS011;2548;52.050;11.036;2024-02-14T00:12:41;3.28;;;2.50;;
5058;SDS011;2548;52.050;11.036;2024-02-14T00:15:10;3.75;;;3.00;;
5058;SDS011;2548;52.050;11.036;2024-02-14T00:17:37;3.55;;;3.05;;
5058;SDS011;2548;52.050;11.036;2024-02-14T00:20:05;3.33;;;2.78;;
5058;SDS011;2548;52.050;11.036;2024-02-14T00:22:36;3.13;;;2.83;;
5058;SDS011;2548;52.050;11.036;2024-02-14T00:25:04;6.00;;;3.45;;
5058;SDS011;2548;52.050;11.036;2024-02-14T00:27:32;3.80;;;2.42;;
5058;SDS011;2548;52.050;11.036;2024-02-14T00:30:01;5.60;;;3.28;;
5058;SDS011;2548;52.050;11.036;2024-02-14T00:32:29;2.40;;;2.30;;
5058;SDS011;2548;52.050;11.036;2024-02-14T00:34:56;3.13;;;2.92;;
5058;SDS011;2548;52.050;11.036;2024-02-14T00:37:24;3.08;;;2.80;;
5058;SDS011;2548;52.050;11.036;2024-02-14T00:39:51;3.38;;;3.17;;
5058;SDS011;2548;52.050;11.036;2024-02-14T00:42:19;2.67;;;2.58;;
5058;SDS011;2548;52.050;11.036;2024-02-14T00:44:47;5.68;;;2.25;;
5058;SDS011;2548;52.050;11.036;2024-02-14T00:47:16;3.15;;;2.40;;
5058;SDS011;2548;52.050;11.036;2024-02-14T00:49:43;3.10;;;2.40;;
5058;SDS011;2548;52.050;11.036;2024-02-14T00:52:11;2.60;;;2.50;;
5058;SDS011;2548;52.050;11.036;2024-02-14T00:54:40;2.40;;;2.22;;
5058;SDS011;2548;52.050;11.036;2024-02-14T00:57:07;2.85;;;2.67;;
5058;SDS011;2548;52.050;11.036;2024-02-14T00:59:35;2.33;;;2.22;;
5058;SDS011;2548;52.050;11.036;2024-02-14T01:02:02;3.25;;;2.67;;
5058;SDS011;2548;52.050;11.036;2024-02-14T01:04:31;5.65;;;2.70;;
5058;SDS011;2548;52.050;11.036;2024-02-14T01:07:01;5.80;;;2.30;;
5058;SDS011;2548;52.050;11.036;2024-02-14T01:09:29;4.10;;;2.78;;
5058;SDS011;2548;52.050;11.036;2024-02-14T01:11:58;2.70;;;2.60;;
5058;SDS011;2548;52.050;11.036;2024-02-14T01:14:26;2.40;;;2.20;;
5058;SDS011;2548;52.050;11.036;2024-02-14T01:16:53;3.42;;;3.13;;
5058;SDS011;2548;52.050;11.036;2024-02-14T01:19:22;2.85;;;2.63;;
5058;SDS011;2548;52.050;11.036;2024-02-14T01:21:51;2.50;;;2.30;;
5058;SDS011;2548;52.050;11.036;2024-02-14T01:24:18;2.38;;;2.17;;
5058;SDS011;2548;52.050;11.036;2024-02-14T01:26:45;2.08;;;1.98;;
5058;SDS011;2548;52.050;11.036;2024-02-14T01:29:13;4.47;;;3.20;;
5058;SDS011;2548;52.050;11.036;2024-02-14T01:31:42;2.80;;;2.60;;
5058;SDS011;2548;52.050;11.036;2024-02-14T01:34:09;3.30;;;2.75;;
5058;SDS011;2548;52.050;11.036;2024-02-14T01:36:37;3.00;;;2.80;;
5058;SDS011;2548;52.050;11.036;2024-02-14T01:39:08;2.33;;;2.22;;
5058;SDS011;2548;52.050;11.036;2024-02-14T01:41:37;6.40;;;3.90;;
5058;SDS011;2548;52.050;11.036;2024-02-14T01:44:04;3.88;;;3.53;;
5058;SDS011;2548;52.050;11.036;2024-02-14T01:46:32;2.50;;;2.40;;
5058;SDS011;2548;52.050;11.036;2024-02-14T01:49:00;2.78;;;2.30;;
5058;SDS011;2548;52.050;11.036;2024-02-14T01:51:28;2.10;;;2.00;;
5058;SDS011;2548;52.050;11.036;2024-02-14T01:53:58;15.50;;;2.33;;
5058;SDS011;2548;52.050;11.036;2024-02-14T01:56:27;2.50;;;2.30;;
5058;SDS011;2548;52.050;11.036;2024-02-14T01:58:54;2.67;;;2.40;;
5058;SDS011;2548;52.050;11.036;2024-02-14T02:01:22;2.25;;;2.05;;
5058;SDS011;2548;52.050;11.036;2024-02-14T02:03:51;2.90;;;2.75;;
5058;SDS011;2548;52.050;11.036;2024-02-14T02:06:18;3.00;;;2.67;;
5058;SDS011;2548;52.050;11.036;2024-02-14T02:08:46;3.47;;;2.53;;
5058;SDS011;2548;52.050;11.036;2024-02-14T02:11:15;5.18;;;2.58;;
5058;SDS011;2548;52.050;11.036;2024-02-14T02:13:44;3.95;;;2.25;;
5058;SDS011;2548;52.050;11.036;2024-02-14T02:16:11;2.78;;;2.67;;
5058;SDS011;2548;52.050;11.036;2024-02-14T02:18:40;3.65;;;2.33;;
5058;SDS011;2548;52.050;11.036;2024-02-14T02:21:08;3.45;;;3.08;;
5058;SDS011;2548;52.050;11.036;2024-02-14T02:23:36;2.92;;;2.60;;
5058;SDS011;2548;52.050;11.036;2024-02-14T02:26:04;3.15;;;3.00;;
5058;SDS011;2548;52.050;11.036;2024-02-14T02:28:31;3.08;;;2.78;;
5058;SDS011;2548;52.050;11.036;2024-02-14T02:30:59;4.53;;;2.50;;
5058;SDS011;2548;52.050;11.036;2024-02-14T02:33:26;3.30;;;2.95;;
5058;SDS011;2548;52.050;11.036;2024-02-14T02:35:53;3.05;;;2.72;;
5058;SDS011;2548;52.050;11.036;2024-02-14T02:38:21;3.67;;;2.72;;
5058;SDS011;2548;52.050;11.036;2024-02-14T02:40:50;2.70;;;2.50;;
5058;SDS011;2548;52.050;11.036;2024-02-14T02:43:17;5.63;;;3.05;;
5058;SDS011;2548;52.050;11.036;2024-02-14T02:45:45;6.57;;;3.03;;
5058;SDS011;2548;52.050;11.036;2024-02-14T02:48:13;3.78;;;2.63;;
5058;SDS011;2548;52.050;11.036;2024-02-14T02:50:40;6.57;;;3.17;;
5058;SDS011;2548;52.050;11.036;2024-02-14T02:53:08;3.35;;;2.65;;
5058;SDS011;2548;52.050;11.036;2024-02-14T02:55:35;5.50;;;2.80;;
5058;SDS011;2548;52.050;11.036;2024-02-14T02:58:05;2.72;;;2.50;;
5058;SDS011;2548;52.050;11.036;2024-02-14T03:00:32;3.90;;;2.97;;
5058;SDS011;2548;52.050;11.036;2024-02-14T03:03:00;3.40;;;2.10;;
5058;SDS011;2548;52.050;11.036;2024-02-14T03:05:28;2.80;;;2.65;;
5058;SDS011;2548;52.050;11.036;2024-02-14T03:07:59;3.03;;;2.40;;
5058;SDS011;2548;52.050;11.036;2024-02-14T03:10:26;8.02;;;2.85;;
5058;SDS011;2548;52.050;11.036;2024-02-14T03:12:55;3.28;;;2.30;;
5058;SDS011;2548;52.050;11.036;2024-02-14T03:15:24;3.28;;;2.72;;
5058;SDS011;2548;52.050;11.036;2024-02-14T03:17:52;2.40;;;2.20;;
5058;SDS011;2548;52.050;11.036;2024-02-14T03:20:19;2.25;;;1.95;;
5058;SDS011;2548;52.050;11.036;2024-02-14T03:22:47;2.33;;;2.13;;
5058;SDS011;2548;52.050;11.036;2024-02-14T03:25:15;9.88;;;2.92;;
5058;SDS011;2548;52.050;11.036;2024-02-14T03:27:44;3.83;;;3.25;;
5058;SDS011;2548;52.050;11.036;2024-02-14T03:30:13;3.22;;;2.92;;
5058;SDS011;2548;52.050;11.036;2024-02-14T03:32:43;7.88;;;2.72;;
5058;SDS011;2548;52.050;11.036;2024-02-14T03:35:11;3.88;;;3.00;;
5058;SDS011;2548;52.050;11.036;2024-02-14T03:37:40;4.93;;;2.60;;
5058;SDS011;2548;52.050;11.036;2024-02-14T03:40:08;3.63;;;2.58;;
5058;SDS011;2548;52.050;11.036;2024-02-14T03:42:37;2.45;;;2.17;;
5058;SDS011;2548;52.050;11.036;2024-02-14T03:45:06;3.00;;;2.42;;
5058;SDS011;2548;52.050;11.036;2024-02-14T03:47:34;6.53;;;2.80;;
5058;SDS011;2548;52.050;11.036;2024-02-14T03:50:04;2.92;;;2.72;;
5058;SDS011;2548;52.050;11.036;2024-02-14T03:52:32;2.20;;;2.05;;
5058;SDS011;2548;52.050;11.036;2024-02-14T03:55:00;2.60;;;2.40;;
5058;SDS011;2548;52.050;11.036;2024-02-14T03:57:28;4.72;;;2.00;;
5058;SDS011;2548;52.050;11.036;2024-02-14T03:59:55;3.15;;;2.85;;
5058;SDS011;2548;52.050;11.036;2024-02-14T04:02:24;3.15;;;2.85;;
5058;SDS011;2548;52.050;11.036;2024-02-14T04:04:53;2.58;;;2.35;;
5058;SDS011;2548;52.050;11.036;2024-02-14T04:07:22;2.85;;;2.63;;
5058;SDS011;2548;52.050;11.036;2024-02-14T04:09:50;5.85;;;3.13;;
5058;SDS011;2548;52.050;11.036;2024-02-14T04:12:17;2.80;;;2.70;;
5058;SDS011;2548;52.050;11.036;2024-02-14T04:14:45;3.15;;;2.75;;
5058;SDS011;2548;52.050;11.036;2024-02-14T04:17:14;2.50;;;2.30;;
5058;SDS011;2548;52.050;11.036;2024-02-14T04:19:41;2.47;;;2.17;;
5058;SDS011;2548;52.050;11.036;2024-02-14T04:22:09;3.08;;;1.90;;
5058;SDS011;2548;52.050;11.036;2024-02-14T04:24:37;3.00;;;2.35;;
5058;SDS011;2548;52.050;11.036;2024-02-14T04:27:05;4.10;;;2.22;;
5058;SDS011;2548;52.050;11.036;2024-02-14T04:29:32;6.97;;;1.98;;
5058;SDS011;2548;52.050;11.036;2024-02-14T04:32:00;6.47;;;2.50;;
5058;SDS011;2548;52.050;11.036;2024-02-14T04:34:28;2.40;;;2.20;;
5058;SDS011;2548;52.050;11.036;2024-02-14T04:36:56;7.28;;;2.53;;
5058;SDS011;2548;52.050;11.036;2024-02-14T04:39:23;3.50;;;1.90;;
5058;SDS011;2548;52.050;11.036;2024-02-14T04:41:52;3.80;;;2.33;;
5058;SDS011;2548;52.050;11.036;2024-02-14T04:44:20;2.55;;;2.40;;
5058;SDS011;2548;52.050;11.036;2024-02-14T04:46:47;2.10;;;2.00;;
5058;SDS011;2548;52.050;11.036;2024-02-14T04:49:14;11.63;;;3.15;;
5058;SDS011;2548;52.050;11.036;2024-02-14T04:51:42;6.22;;;1.77;;
5058;SDS011;2548;52.050;11.036;2024-02-14T04:54:09;4.53;;;1.65;;
5058;SDS011;2548;52.050;11.036;2024-02-14T04:56:39;1.55;;;1.45;;
5058;SDS011;2548;52.050;11.036;2024-02-14T04:59:08;2.22;;;2.00;;
5058;SDS011;2548;52.050;11.036;2024-02-14T05:01:35;4.55;;;1.90;;
5058;SDS011;2548;52.050;11.036;2024-02-14T05:04:03;2.67;;;2.17;;
5058;SDS011;2548;52.050;11.036;2024-02-14T05:06:31;2.22;;;2.05;;
5058;SDS011;2548;52.050;11.036;2024-02-14T05:08:58;3.42;;;1.85;;
5058;SDS011;2548;52.050;11.036;2024-02-14T05:11:26;4.20;;;1.80;;
5058;SDS011;2548;52.050;11.036;2024-02-14T05:13:53;2.40;;;2.30;;
5058;SDS011;2548;52.050;11.036;2024-02-14T05:16:23;2.15;;;1.77;;
5058;SDS011;2548;52.050;11.036;2024-02-14T05:18:50;2.00;;;1.77;;
5058;SDS011;2548;52.050;11.036;2024-02-14T05:21:19;2.20;;;1.83;;
5058;SDS011;2548;52.050;11.036;2024-02-14T05:23:47;5.20;;;1.50;;
5058;SDS011;2548;52.050;11.036;2024-02-14T05:26:15;4.95;;;2.10;;
5058;SDS011;2548;52.050;11.036;2024-02-14T05:28:43;2.22;;;1.80;;
5058;SDS011;2548;52.050;11.036;2024-02-14T05:31:11;3.00;;;1.55;;
5058;SDS011;2548;52.050;11.036;2024-02-14T05:33:39;4.00;;;1.88;;
5058;SDS011;2548;52.050;11.036;2024-02-14T05:36:07;2.80;;;2.10;;
5058;SDS011;2548;52.050;11.036;2024-02-14T05:38:34;3.03;;;1.67;;
5058;SDS011;2548;52.050;11.036;2024-02-14T05:41:02;1.90;;;1.80;;
5058;SDS011;2548;52.050;11.036;2024-02-14T05:43:29;2.10;;;2.00;;
5058;SDS011;2548;52.050;11.036;2024-02-14T05:45:57;3.13;;;2.00;;
5058;SDS011;2548;52.050;11.036;2024-02-14T05:48:24;3.53;;;2.10;;
5058;SDS011;2548;52.050;11.036;2024-02-14T05:50:53;2.00;;;1.90;;
5058;SDS011;2548;52.050;11.036;2024-02-14T05:53:21;10.55;;;4.18;;
5058;SDS011;2548;52.050;11.036;2024-02-14T05:55:49;3.17;;;2.00;;
5058;SDS011;2548;52.050;11.036;2024-02-14T05:58:18;2.63;;;2.40;;
5058;SDS011;2548;52.050;11.036;2024-02-14T06:00:45;2.53;;;1.85;;
5058;SDS011;2548;52.050;11.036;2024-02-14T06:03:13;2.63;;;2.40;;
5058;SDS011;2548;52.050;11.036;2024-02-14T06:05:40;7.22;;;2.33;;
5058;SDS011;2548;52.050;11.036;2024-02-14T06:08:09;9.00;;;2.90;;
5058;SDS011;2548;52.050;11.036;2024-02-14T06:10:36;5.10;;;2.47;;
5058;SDS011;2548;52.050;11.036;2024-02-14T06:13:05;9.02;;;3.10;;
5058;SDS011;2548;52.050;11.036;2024-02-14T06:15:32;7.25;;;2.30;;
5058;SDS011;2548;52.050;11.036;2024-02-14T06:18:00;4.50;;;1.83;;
5058;SDS011;2548;52.050;11.036;2024-02-14T06:20:27;3.17;;;1.83;;
5058;SDS011;2548;52.050;11.036;2024-02-14T06:22:55;1.85;;;1.70;;
5058;SDS011;2548;52.050;11.036;2024-02-14T06:25:23;1.98;;;1.60;;
5058;SDS011;2548;52.050;11.036;2024-02-14T06:27:51;1.83;;;1.65;;
5058;SDS011;2548;52.050;11.036;2024-02-14T06:30:19;1.42;;;1.42;;
5058;SDS011;2548;52.050;11.036;2024-02-14T06:32:47;3.72;;;1.48;;
5058;SDS011;2548;52.050;11.036;2024-02-14T06:35:14;2.60;;;1.60;;
5058;SDS011;2548;52.050;11.036;2024-02-14T06:37:46;1.60;;;1.60;;
5058;SDS011;2548;52.050;11.036;2024-02-14T06:40:13;2.08;;;1.60;;
5058;SDS011;2548;52.050;11.036;2024-02-14T06:42:43;1.90;;;0.98;;
5058;SDS011;2548;52.050;11.036;2024-02-14T06:45:10;6.32;;;2.00;;
5058;SDS011;2548;52.050;11.036;2024-02-14T06:47:37;2.38;;;1.67;;
5058;SDS011;2548;52.050;11.036;2024-02-14T06:50:05;1.42;;;1.33;;
5058;SDS011;2548;52.050;11.036;2024-02-14T06:52:33;2.35;;;1.70;;
5058;SDS011;2548;52.050;11.036;2024-02-14T06:55:01;1.50;;;1.50;;
5058;SDS011;2548;52.050;11.036;2024-02-14T06:57:29;5.43;;;2.67;;
5058;SDS011;2548;52.050;11.036;2024-02-14T06:59:58;2.13;;;2.03;;
5058;SDS011;2548;52.050;11.036;2024-02-14T07:02:25;6.00;;;1.92;;
5058;SDS011;2548;52.050;11.036;2024-02-14T07:04:53;2.50;;;2.30;;
5058;SDS011;2548;52.050;11.036;2024-02-14T07:07:21;2.38;;;1.70;;
5058;SDS011;2548;52.050;11.036;2024-02-14T07:09:48;3.90;;;1.92;;
5058;SDS011;2548;52.050;11.036;2024-02-14T07:12:17;2.13;;;2.03;;
5058;SDS011;2548;52.050;11.036;2024-02-14T07:14:46;2.83;;;1.92;;
5058;SDS011;2548;52.050;11.036;2024-02-14T07:17:15;1.80;;;1.45;;
5058;SDS011;2548;52.050;11.036;2024-02-14T07:19:42;6.50;;;2.35;;
5058;SDS011;2548;52.050;11.036;2024-02-14T07:22:15;1.90;;;1.17;;
5058;SDS011;2548;52.050;11.036;2024-02-14T07:24:44;2.85;;;2.33;;
5058;SDS011;2548;52.050;11.036;2024-02-14T07:27:13;2.38;;;1.73;;
5058;SDS011;2548;52.050;11.036;2024-02-14T07:29:42;6.43;;;1.85;;
5058;SDS011;2548;52.050;11.036;2024-02-14T07:32:10;3.17;;;1.50;;
5058;SDS011;2548;52.050;11.036;2024-02-14T07:34:39;4.05;;;2.90;;
5058;SDS011;2548;52.050;11.036;2024-02-14T07:37:06;3.95;;;1.70;;
5058;SDS011;2548;52.050;11.036;2024-02-14T07:39:34;1.45;;;1.35;;
5058;SDS011;2548;52.050;11.036;2024-02-14T07:42:02;3.50;;;2.00;;
5058;SDS011;2548;52.050;11.036;2024-02-14T07:44:29;2.17;;;1.60;;
5058;SDS011;2548;52.050;11.036;2024-02-14T07:46:57;3.53;;;1.75;;
5058;SDS011;2548;52.050;11.036;2024-02-14T07:49:25;2.72;;;2.05;;
5058;SDS011;2548;52.050;11.036;2024-02-14T07:51:53;2.05;;;1.95;;
5058;SDS011;2548;52.050;11.036;2024-02-14T07:54:21;2.00;;;1.90;;
5058;SDS011;2548;52.050;11.036;2024-02-14T07:56:48;3.08;;;2.25;;
5058;SDS011;2548;52.050;11.036;2024-02-14T07:59:16;2.50;;;1.95;;
5058;SDS011;2548;52.050;11.036;2024-02-14T08:01:43;5.22;;;2.00;;
5058;SDS011;2548;52.050;11.036;2024-02-14T08:04:11;3.83;;;1.67;;
5058;SDS011;2548;52.050;11.036;2024-02-14T08:06:38;2.90;;;1.92;;
5058;SDS011;2548;52.050;11.036;2024-02-14T08:09:07;2.05;;;1.95;;
5058;SDS011;2548;52.050;11.036;2024-02-14T08:11:35;3.85;;;1.50;;
5058;SDS011;2548;52.050;11.036;2024-02-14T08:14:03;7.78;;;1.70;;
5058;SDS011;2548;52.050;11.036;2024-02-14T08:16:30;1.88;;;1.77;;
5058;SDS011;2548;52.050;11.036;2024-02-14T08:18:58;4.30;;;1.73;;
5058;SDS011;2548;52.050;11.036;2024-02-14T08:21:26;1.85;;;1.75;;
5058;SDS011;2548;52.050;11.036;2024-02-14T08:23:53;1.75;;;1.67;;
5058;SDS011;2548;52.050;11.036;2024-02-14T08:26:22;6.57;;;2.25;;
5058;SDS011;2548;52.050;11.036;2024-02-14T08:28:50;3.75;;;2.50;;
5058;SDS011;2548;52.050;11.036;2024-02-14T08:31:17;2.25;;;2.05;;
5058;SDS011;2548;52.050;11.036;2024-02-14T08:33:46;2.15;;;2.05;;
5058;SDS011;2548;52.050;11.036;2024-02-14T08:36:13;2.55;;;1.90;;
5058;SDS011;2548;52.050;11.036;2024-02-14T08:38:42;5.00;;;2.17;;
5058;SDS011;2548;52.050;11.036;2024-02-14T08:41:10;4.55;;;4.25;;
5058;SDS011;2548;52.050;11.036;2024-02-14T08:43:39;16.15;;;7.05;;
5058;SDS011;2548;52.050;11.036;2024-02-14T08:46:09;12.43;;;11.13;;
5058;SDS011;2548;52.050;11.036;2024-02-14T08:48:36;7.15;;;6.47;;
5058;SDS011;2548;52.050;11.036;2024-02-14T08:51:07;6.85;;;4.88;;
5058;SDS011;2548;52.050;11.036;2024-02-14T08:53:35;3.78;;;3.58;;
5058;SDS011;2548;52.050;11.036;2024-02-14T08:56:03;4.90;;;4.50;;
5058;SDS011;2548;52.050;11.036;2024-02-14T08:58:31;8.32;;;5.40;;
5058;SDS011;2548;52.050;11.036;2024-02-14T09:01:02;5.25;;;4.75;;
5058;SDS011;2548;52.050;11.036;2024-02-14T09:03:29;3.60;;;3.30;;
5058;SDS011;2548;52.050;11.036;2024-02-14T09:05:57;3.17;;;2.97;;
5058;SDS011;2548;52.050;11.036;2024-02-14T09:08:25;2.45;;;2.25;;
5058;SDS011;2548;52.050;11.036;2024-02-14T09:10:53;2.97;;;2.78;;
5058;SDS011;2548;52.050;11.036;2024-02-14T09:13:21;11.25;;;8.95;;
5058;SDS011;2548;52.050;11.036;2024-02-14T09:15:48;7.05;;;6.45;;
5058;SDS011;2548;52.050;11.036;2024-02-14T09:18:18;5.10;;;4.35;;
5058;SDS011;2548;52.050;11.036;2024-02-14T09:20:45;2.50;;;2.40;;
5058;SDS011;2548;52.050;11.036;2024-02-14T09:23:13;2.75;;;2.55;;
5058;SDS011;2548;52.050;11.036;2024-02-14T09:25:45;30.63;;;15.52;;
5058;SDS011;2548;52.050;11.036;2024-02-14T09:28:12;52.67;;;22.13;;
5058;SDS011;2548;52.050;11.036;2024-02-14T09:30:40;31.75;;;13.30;;
5058;SDS011;2548;52.050;11.036;2024-02-14T09:33:08;21.35;;;8.45;;
5058;SDS011;2548;52.050;11.036;2024-02-14T09:35:37;19.92;;;13.15;;
5058;SDS011;2548;52.050;11.036;2024-02-14T09:38:10;32.92;;;17.13;;
5058;SDS011;2548;52.050;11.036;2024-02-14T09:40:38;14.23;;;8.80;;
5058;SDS011;2548;52.050;11.036;2024-02-14T09:43:09;18.67;;;12.65;;
5058;SDS011;2548;52.050;11.036;2024-02-14T09:45:48;23.70;;;16.08;;
5058;SDS011;2548;52.050;11.036;2024-02-14T09:48:18;22.30;;;16.20;;
5058;SDS011;2548;52.050;11.036;2024-02-14T09:50:49;20.60;;;15.10;;
5058;SDS011;2548;52.050;11.036;2024-02-14T09:53:19;20.05;;;12.90;;
5058;SDS011;2548;52.050;11.036;2024-02-14T09:55:47;15.80;;;14.10;;
5058;SDS011;2548;52.050;11.036;2024-02-14T09:58:16;12.02;;;9.80;;
5058;SDS011;2548;52.050;11.036;2024-02-14T10:00:44;14.02;;;10.50;;
5058;SDS011;2548;52.050;11.036;2024-02-14T10:03:11;17.55;;;12.10;;
5058;SDS011;2548;52.050;11.036;2024-02-14T10:05:39;22.95;;;13.82;;
5058;SDS011;2548;52.050;11.036;2024-02-14T10:08:08;13.05;;;8.98;;
5058;SDS011;2548;52.050;11.036;2024-02-14T10:10:37;19.17;;;12.25;;
5058;SDS011;2548;52.050;11.036;2024-02-14T10:13:05;8.60;;;5.88;;
5058;SDS011;2548;52.050;11.036;2024-02-14T10:15:33;8.07;;;6.32;;
5058;SDS011;2548;52.050;11.036;2024-02-14T10:18:01;9.00;;;6.20;;
5058;SDS011;2548;52.050;11.036;2024-02-14T10:20:29;6.43;;;5.85;;
5058;SDS011;2548;52.050;11.036;2024-02-14T10:23:02;4.07;;;3.75;;
5058;SDS011;2548;52.050;11.036;2024-02-14T10:25:33;6.47;;;4.35;;
5058;SDS011;2548;52.050;11.036;2024-02-14T10:28:03;2.28;;;2.17;;
5058;SDS011;2548;52.050;11.036;2024-02-14T10:30:34;5.18;;;4.70;;
5058;SDS011;2548;52.050;11.036;2024-02-14T10:33:03;3.90;;;3.65;;
5058;SDS011;2548;52.050;11.036;2024-02-14T10:35:33;6.53;;;2.67;;
5058;SDS011;2548;52.050;11.036;2024-02-14T10:38:03;6.32;;;4.53;;
5058;SDS011;2548;52.050;11.036;2024-02-14T10:40:33;2.75;;;2.65;;
5058;SDS011;2548;52.050;11.036;2024-02-14T10:43:02;2.30;;;2.20;;
5058;SDS011;2548;52.050;11.036;2024-02-14T10:45:30;2.58;;;2.35;;
5058;SDS011;2548;52.050;11.036;2024-02-14T10:47:57;13.77;;;7.00;;
5058;SDS011;2548;52.050;11.036;2024-02-14T10:50:29;3.83;;;3.38;;
5058;SDS011;2548;52.050;11.036;2024-02-14T10:53:00;3.28;;;3.08;;
5058;SDS011;2548;52.050;11.036;2024-02-14T10:55:33;2.05;;;1.95;;
5058;SDS011;2548;52.050;11.036;2024-02-14T10:58:01;3.30;;;3.00;;
5058;SDS011;2548;52.050;11.036;2024-02-14T11:00:30;2.10;;;2.00;;
5058;SDS011;2548;52.050;11.036;2024-02-14T11:02:58;2.40;;;2.30;;
5058;SDS011;2548;52.050;11.036;2024-02-14T11:05:27;4.43;;;3.20;;
5058;SDS011;2548;52.050;11.036;2024-02-14T11:07:54;2.20;;;2.00;;
5058;SDS011;2548;52.050;11.036;2024-02-14T11:10:22;4.53;;;3.33;;
5058;SDS011;2548;52.050;11.036;2024-02-14T11:12:51;2.33;;;2.22;;
5058;SDS011;2548;52.050;11.036;2024-02-14T11:15:21;3.42;;;3.10;;
5058;SDS011;2548;52.050;11.036;2024-02-14T11:17:50;25.75;;;12.27;;
5058;SDS011;2548;52.050;11.036;2024-02-14T11:20:19;25.95;;;9.77;;
5058;SDS011;2548;52.050;11.036;2024-02-14T11:22:54;33.20;;;12.52;;
5058;SDS011;2548;52.050;11.036;2024-02-14T11:25:23;11.23;;;6.90;;
5058;SDS011;2548;52.050;11.036;2024-02-14T11:27:57;6.20;;;4.50;;
5058;SDS011;2548;52.050;11.036;2024-02-14T11:30:31;7.13;;;3.97;;
5058;SDS011;2548;52.050;11.036;2024-02-14T11:33:13;3.63;;;3.05;;
5058;SDS011;2548;52.050;11.036;2024-02-14T11:35:45;3.28;;;3.08;;
5058;SDS011;2548;52.050;11.036;2024-02-14T11:38:13;2.90;;;2.70;;
5058;SDS011;2548;52.050;11.036;2024-02-14T11:40:41;3.35;;;3.05;;
5058;SDS011;2548;52.050;11.036;2024-02-14T11:43:15;5.93;;;3.53;;
5058;SDS011;2548;52.050;11.036;2024-02-14T11:45:43;3.60;;;3.17;;
5058;SDS011;2548;52.050;11.036;2024-02-14T11:48:12;2.13;;;2.03;;
5058;SDS011;2548;52.050;11.036;2024-02-14T11:50:40;2.03;;;1.70;;
5058;SDS011;2548;52.050;11.036;2024-02-14T11:53:09;3.55;;;2.20;;
5058;SDS011;2548;52.050;11.036;2024-02-14T11:55:38;2.63;;;1.95;;
5058;SDS011;2548;52.050;11.036;2024-02-14T11:58:06;3.45;;;2.45;;
5058;SDS011;2548;52.050;11.036;2024-02-14T12:00:38;7.28;;;2.42;;
5058;SDS011;2548;52.050;11.036;2024-02-14T12:03:06;1.98;;;1.85;;
5058;SDS011;2548;52.050;11.036;2024-02-14T12:05:37;3.30;;;2.15;;
5058;SDS011;2548;52.050;11.036;2024-02-14T12:08:06;2.33;;;2.13;;
5058;SDS011;2548;52.050;11.036;2024-02-14T12:10:35;2.47;;;2.30;;
5058;SDS011;2548;52.050;11.036;2024-02-14T12:13:06;3.17;;;1.70;;
5058;SDS011;2548;52.050;11.036;2024-02-14T12:15:40;2.28;;;2.17;;
5058;SDS011;2548;52.050;11.036;2024-02-14T12:18:08;1.98;;;1.77;;
5058;SDS011;2548;52.050;11.036;2024-02-14T12:20:36;2.28;;;1.98;;
5058;SDS011;2548;52.050;11.036;2024-02-14T12:23:04;5.35;;;2.45;;
5058;SDS011;2548;52.050;11.036;2024-02-14T12:25:32;3.75;;;1.85;;
5058;SDS011;2548;52.050;11.036;2024-02-14T12:28:00;1.58;;;1.48;;
5058;SDS011;2548;52.050;11.036;2024-02-14T12:30:41;1.60;;;1.60;;
5058;SDS011;2548;52.050;11.036;2024-02-14T12:33:12;1.40;;;1.30;;
5058;SDS011;2548;52.050;11.036;2024-02-14T12:35:41;2.47;;;1.80;;
5058;SDS011;2548;52.050;11.036;2024-02-14T12:38:09;1.55;;;1.48;;
5058;SDS011;2548;52.050;11.036;2024-02-14T12:40:37;1.20;;;1.10;;
5058;SDS011;2548;52.050;11.036;2024-02-14T12:43:07;1.50;;;1.48;;
5058;SDS011;2548;52.050;11.036;2024-02-14T12:45:35;1.90;;;1.80;;
5058;SDS011;2548;52.050;11.036;2024-02-14T12:48:04;2.55;;;1.45;;
5058;SDS011;2548;52.050;11.036;2024-02-14T12:50:34;1.25;;;1.15;;
5058;SDS011;2548;52.050;11.036;2024-02-14T12:53:03;0.85;;;0.85;;
5058;SDS011;2548;52.050;11.036;2024-02-14T12:55:31;1.60;;;1.50;;
5058;SDS011;2548;52.050;11.036;2024-02-14T12:57:59;1.13;;;0.90;;
5058;SDS011;2548;52.050;11.036;2024-02-14T13:00:27;0.80;;;0.80;;
5058;SDS011;2548;52.050;11.036;2024-02-14T13:02:55;0.95;;;0.95;;
5058;SDS011;2548;52.050;11.036;2024-02-14T13:05:23;1.27;;;1.10;;
5058;SDS011;2548;52.050;11.036;2024-02-14T13:07:51;1.10;;;1.10;;
5058;SDS011;2548;52.050;11.036;2024-02-14T13:10:19;1.20;;;1.10;;
5058;SDS011;2548;52.050;11.036;2024-02-14T13:12:46;0.85;;;0.85;;
5058;SDS011;2548;52.050;11.036;2024-02-14T13:15:13;1.42;;;1.25;;
5058;SDS011;2548;52.050;11.036;2024-02-14T13:17:41;0.73;;;0.73;;
5058;SDS011;2548;52.050;11.036;2024-02-14T13:20:09;0.80;;;0.80;;
5058;SDS011;2548;52.050;11.036;2024-02-14T13:22:39;0.93;;;0.93;;
5058;SDS011;2548;52.050;11.036;2024-02-14T13:25:07;1.00;;;1.00;;
5058;SDS011;2548;52.050;11.036;2024-02-14T13:27:34;2.10;;;1.05;;
5058;SDS011;2548;52.050;11.036;2024-02-14T13:30:02;1.02;;;0.82;;
5058;SDS011;2548;52.050;11.036;2024-02-14T13:32:30;0.95;;;0.95;;
5058;SDS011;2548;52.050;11.036;2024-02-14T13:34:58;0.88;;;0.80;;
5058;SDS011;2548;52.050;11.036;2024-02-14T13:37:25;1.33;;;1.23;;
5058;SDS011;2548;52.050;11.036;2024-02-14T13:39:54;0.90;;;0.90;;
5058;SDS011;2548;52.050;11.036;2024-02-14T13:42:21;1.52;;;0.80;;
5058;SDS011;2548;52.050;11.036;2024-02-14T13:44:49;0.90;;;0.90;;
5058;SDS011;2548;52.050;11.036;2024-02-14T13:47:19;1.15;;;1.05;;
5058;SDS011;2548;52.050;11.036;2024-02-14T13:49:47;1.58;;;1.48;;
5058;SDS011;2548;52.050;11.036;2024-02-14T13:52:14;2.35;;;1.33;;
5058;SDS011;2548;52.050;11.036;2024-02-14T13:54:43;3.70;;;2.08;;
5058;SDS011;2548;52.050;11.036;2024-02-14T13:57:12;2.28;;;1.45;;
5058;SDS011;2548;52.050;11.036;2024-02-14T13:59:39;0.80;;;0.80;;
5058;SDS011;2548;52.050;11.036;2024-02-14T14:02:07;3.55;;;1.50;;
5058;SDS011;2548;52.050;11.036;2024-02-14T14:04:35;2.47;;;1.17;;
5058;SDS011;2548;52.050;11.036;2024-02-14T14:07:03;1.73;;;1.13;;
5058;SDS011;2548;52.050;11.036;2024-02-14T14:09:31;1.80;;;1.30;;
5058;SDS011;2548;52.050;11.036;2024-02-14T14:11:59;1.35;;;1.25;;
5058;SDS011;2548;52.050;11.036;2024-02-14T14:14:28;1.67;;;1.58;;
5058;SDS011;2548;52.050;11.036;2024-02-14T14:16:55;3.47;;;1.25;;
5058;SDS011;2548;52.050;11.036;2024-02-14T14:19:23;5.38;;;1.45;;
5058;SDS011;2548;52.050;11.036;2024-02-14T14:21:51;1.85;;;1.33;;
5058;SDS011;2548;52.050;11.036;2024-02-14T14:24:18;1.50;;;1.40;;
5058;SDS011;2548;52.050;11.036;2024-02-14T14:26:46;1.35;;;1.30;;
5058;SDS011;2548;52.050;11.036;2024-02-14T14:29:13;1.30;;;1.20;;
5058;SDS011;2548;52.050;11.036;2024-02-14T14:31:42;3.30;;;1.50;;
5058;SDS011;2548;52.050;11.036;2024-02-14T14:34:10;2.42;;;1.58;;
5058;SDS011;2548;52.050;11.036;2024-02-14T14:36:37;1.52;;;1.38;;
5058;SDS011;2548;52.050;11.036;2024-02-14T14:39:06;1.60;;;1.10;;
5058;SDS011;2548;52.050;11.036;2024-02-14T14:41:36;1.88;;;1.77;;
5058;SDS011;2548;52.050;11.036;2024-02-14T14:44:04;3.80;;;3.50;;
5058;SDS011;2548;52.050;11.036;2024-02-14T14:46:31;2.97;;;2.42;;
5058;SDS011;2548;52.050;11.036;2024-02-14T14:49:02;5.85;;;2.10;;
5058;SDS011;2548;52.050;11.036;2024-02-14T14:51:29;5.45;;;3.80;;
5058;SDS011;2548;52.050;11.036;2024-02-14T14:53:57;2.17;;;1.98;;
5058;SDS011;2548;52.050;11.036;2024-02-14T14:56:24;3.53;;;2.97;;
5058;SDS011;2548;52.050;11.036;2024-02-14T14:58:52;2.40;;;1.38;;
5058;SDS011;2548;52.050;11.036;2024-02-14T15:01:20;2.55;;;1.73;;
5058;SDS011;2548;52.050;11.036;2024-02-14T15:03:48;2.95;;;1.73;;
5058;SDS011;2548;52.050;11.036;2024-02-14T15:06:16;1.88;;;1.80;;